Time;durP1;ratioP1;P1;durP2;ratioP2;P2;SDS_P1;SDS_P2;PMS_P1;PMS_P2;Temp;Humidity;BMP_temperature;BMP_pressure;BME280_temperature;BME280_humidity;BME280_pressure;Samples;Min_cycle;Max_cycle;Signal;HPM_P1;HPM_P2
2024/03/15 00:00:40;;;;;;;7.13;6.00;;;;;;;-146.25;100.00;52485.81;2088656;28;22013;-64
2024/03/15 00:01:42;;;;;;;10.48;6.80;;;;;;;-146.25;100.00;52441.19;2088163;28;34332;-64
2024/03/15 00:02:45;;;;;;;6.65;5.90;;;;;;;-146.25;100.00;52522.28;2088507;28;34070;-64
2024/03/15 00:03:47;;;;;;;8.52;5.85;;;;;;;-146.25;100.00;52473.63;2087341;28;36457;-63
2024/03/15 00:04:51;;;;;;;7.72;6.72;;;;;;;-146.25;100.00;52471.59;2088198;28;31479;-64
2024/03/15 00:05:53;;;;;;;8.35;6.22;;;;;;;-146.25;100.00;52491.88;2087146;28;33052;-64
2024/03/15 00:06:56;;;;;;;7.88;6.15;;;;;;;-146.25;100.00;52487.81;2088695;28;33500;-63
2024/03/15 00:07:58;;;;;;;7.90;6.25;;;;;;;-146.25;100.00;52479.72;2088297;28;32540;-64
2024/03/15 00:09:00;;;;;;;7.10;6.03;;;;;;;-146.25;100.00;52475.66;2088484;28;36063;-63
2024/03/15 00:10:01;;;;;;;6.57;5.72;;;;;;;-146.25;100.00;52500.00;2088186;28;33798;-64
2024/03/15 00:11:03;;;;;;;7.82;6.22;;;;;;;-146.25;100.00;52497.97;2088317;28;33803;-64
2024/03/15 00:12:06;;;;;;;9.93;6.75;;;;;;;-146.25;100.00;52469.56;2088294;28;32390;-64
2024/03/15 00:13:08;;;;;;;7.90;5.82;;;;;;;-146.25;100.00;52485.81;2088313;28;33508;-64
2024/03/15 00:14:10;;;;;;;7.80;5.55;;;;;;;-146.25;100.00;52453.34;2088169;28;34886;-64
2024/03/15 00:15:12;;;;;;;8.20;6.13;;;;;;;-146.25;100.00;52465.53;2088420;28;35010;-64
2024/03/15 00:16:14;;;;;;;6.57;5.40;;;;;;;-146.25;100.00;52489.84;2088291;28;36232;-64
2024/03/15 00:17:17;;;;;;;7.93;6.10;;;;;;;-146.25;100.00;52481.75;2088668;28;36007;-63
2024/03/15 00:18:23;;;;;;;8.68;6.22;;;;;;;-146.25;100.00;52502.03;2085901;28;20042;-63
2024/03/15 00:19:25;;;;;;;8.00;6.03;;;;;;;-146.25;100.00;52461.47;2088548;28;32684;-64
2024/03/15 00:20:30;;;;;;;7.07;5.82;;;;;;;-146.25;100.00;52502.03;2088556;28;20939;-64
2024/03/15 00:21:32;;;;;;;8.82;5.63;;;;;;;-146.25;100.00;52481.75;2088060;28;23242;-64
2024/03/15 00:22:34;;;;;;;8.18;5.82;;;;;;;-146.25;100.00;52459.44;2087865;28;36449;-64
2024/03/15 00:23:36;;;;;;;8.57;5.75;;;;;;;-146.25;100.00;52475.66;2088166;28;23109;-64
2024/03/15 00:24:37;;;;;;;8.50;5.57;;;;;;;-146.25;100.00;52463.50;2087042;28;35566;-64
2024/03/15 00:25:41;;;;;;;7.90;5.95;;;;;;;-146.25;100.00;52489.84;2088345;28;34141;-64
2024/03/15 00:26:43;;;;;;;7.55;5.60;;;;;;;-146.25;100.00;52453.34;2087192;28;35338;-63
2024/03/15 00:27:45;;;;;;;7.75;6.28;;;;;;;-146.25;100.00;52463.50;2087872;28;33553;-64
2024/03/15 00:28:47;;;;;;;6.82;5.75;;;;;;;-146.25;100.00;52489.84;2087984;28;31752;-64
2024/03/15 00:29:49;;;;;;;7.57;5.88;;;;;;;-146.25;100.00;52471.59;2088866;28;33930;-64
2024/03/15 00:30:51;;;;;;;6.82;5.45;;;;;;;-146.25;100.00;52469.56;2088059;28;34982;-63
2024/03/15 00:31:56;;;;;;;7.40;5.75;;;;;;;-146.25;100.00;52447.28;2088890;28;20107;-64
2024/03/15 00:32:58;;;;;;;7.50;5.60;;;;;;;-146.25;100.00;52447.28;2087595;28;32124;-63
2024/03/15 00:34:00;;;;;;;7.63;5.53;;;;;;;-146.25;100.00;52461.47;2088590;28;33323;-64
2024/03/15 00:35:02;;;;;;;5.78;5.15;;;;;;;-146.25;100.00;52489.84;2087946;28;32192;-64
2024/03/15 00:36:04;;;;;;;6.88;5.93;;;;;;;-146.25;100.00;52497.97;2088871;28;27333;-63
2024/03/15 00:37:08;;;;;;;8.48;5.20;;;;;;;-146.25;100.00;52514.19;2087621;28;30905;-64
2024/03/15 00:38:10;;;;;;;9.73;5.97;;;;;;;-146.25;100.00;52463.50;2088140;28;37035;-63
2024/03/15 00:39:14;;;;;;;6.15;4.82;;;;;;;-146.25;100.00;52457.41;2088546;28;21218;-63
2024/03/15 00:40:16;;;;;;;6.72;5.28;;;;;;;-146.25;100.00;52477.69;2088482;28;34740;-64
2024/03/15 00:41:19;;;;;;;6.75;5.00;;;;;;;-146.25;100.00;52471.59;2088813;28;20036;-64
2024/03/15 00:42:21;;;;;;;8.80;5.28;;;;;;;-146.25;100.00;52469.56;2088410;28;31768;-64
2024/03/15 00:43:23;;;;;;;6.65;5.20;;;;;;;-146.25;100.00;52500.00;2087700;28;37413;-64
2024/03/15 00:44:27;;;;;;;7.88;5.38;;;;;;;-146.25;100.00;52506.06;2088475;28;34285;-64
2024/03/15 00:45:29;;;;;;;5.65;4.88;;;;;;;-146.25;100.00;52489.84;2088324;28;21666;-63
2024/03/15 00:46:31;;;;;;;7.70;5.50;;;;;;;-146.25;100.00;52506.06;2088141;28;33035;-64
2024/03/15 00:47:32;;;;;;;8.13;5.50;;;;;;;-146.25;100.00;52481.75;2087515;28;34534;-64
2024/03/15 00:48:35;;;;;;;7.85;5.13;;;;;;;-146.25;100.00;52469.56;2088064;28;34508;-64
2024/03/15 00:49:37;;;;;;;7.10;5.45;;;;;;;-146.25;100.00;52487.81;2111938;22;34329;-64
2024/03/15 00:50:40;;;;;;;8.35;5.60;;;;;;;-146.25;100.00;52500.00;2088458;28;30151;-64
2024/03/15 00:51:42;;;;;;;6.63;5.35;;;;;;;-146.25;100.00;52451.31;2087992;28;20148;-64
2024/03/15 00:52:44;;;;;;;6.95;5.00;;;;;;;-146.25;100.00;52506.06;2080133;28;31537;-64
2024/03/15 00:53:46;;;;;;;7.10;5.65;;;;;;;-146.25;100.00;52495.94;2079409;28;33833;-64
2024/03/15 00:54:48;;;;;;;8.38;5.80;;;;;;;-146.25;100.00;52463.50;2087247;28;34425;-64
2024/03/15 00:55:50;;;;;;;7.38;5.50;;;;;;;-146.25;100.00;52485.81;2087307;28;34070;-64
2024/03/15 00:56:52;;;;;;;8.68;4.80;;;;;;;-146.25;100.00;52485.81;2087161;28;34405;-64
2024/03/15 00:57:54;;;;;;;7.60;5.05;;;;;;;-146.25;100.00;52481.75;2087530;28;33772;-64
2024/03/15 00:58:56;;;;;;;6.85;5.25;;;;;;;-146.25;100.00;52493.91;2088287;28;32625;-64
2024/03/15 00:59:58;;;;;;;7.18;5.43;;;;;;;-146.25;100.00;52483.78;2087689;28;35816;-64
2024/03/15 01:01:01;;;;;;;8.02;5.43;;;;;;;-146.25;100.00;52453.34;2088289;28;33774;-62
2024/03/15 01:02:03;;;;;;;9.18;5.22;;;;;;;-146.25;100.00;52489.84;2078933;28;34082;-64
2024/03/15 01:03:05;;;;;;;5.70;4.88;;;;;;;-146.25;100.00;52487.81;2079514;28;35621;-65
2024/03/15 01:04:07;;;;;;;7.28;4.80;;;;;;;-146.25;100.00;52493.91;2087809;28;38297;-64
2024/03/15 01:05:09;;;;;;;7.38;5.30;;;;;;;-146.25;100.00;52510.13;2088189;28;36621;-65
2024/03/15 01:06:13;;;;;;;8.27;5.00;;;;;;;-146.25;100.00;52485.81;2070700;28;33210;-64
2024/03/15 01:07:15;;;;;;;7.68;5.15;;;;;;;-146.25;100.00;52483.78;2072131;28;32844;-65
2024/03/15 01:08:20;;;;;;;8.93;5.10;;;;;;;-146.25;100.00;52477.69;2087730;28;33670;-64
2024/03/15 01:09:22;;;;;;;7.15;5.40;;;;;;;-146.25;100.00;52481.75;2088777;28;20156;-65
2024/03/15 01:10:25;;;;;;;6.65;4.80;;;;;;;-146.25;100.00;52469.56;2079130;28;34747;-64
2024/03/15 01:11:32;;;;;;;6.03;4.70;;;;;;;-146.25;100.00;52516.22;2079677;28;32035;-63
2024/03/15 01:12:34;;;;;;;6.82;4.70;;;;;;;-146.25;100.00;52473.63;2087884;28;32206;-65
2024/03/15 01:13:36;;;;;;;8.75;5.20;;;;;;;-146.25;100.00;52500.00;2088168;28;32312;-65
2024/03/15 01:14:37;;;;;;;5.68;4.30;;;;;;;-146.25;100.00;52479.72;2087901;28;33559;-65
2024/03/15 01:15:42;;;;;;;7.28;4.85;;;;;;;-146.25;100.00;52465.53;2088159;28;35468;-64
2024/03/15 01:16:45;;;;;;;6.07;4.95;;;;;;;-146.25;100.00;52435.09;2087851;28;35186;-65
2024/03/15 01:17:47;;;;;;;6.60;4.75;;;;;;;-146.25;100.00;52475.66;2088404;28;20057;-65
2024/03/15 01:18:49;;;;;;;8.13;5.40;;;;;;;-146.25;100.00;52495.94;2095395;28;34161;-65
2024/03/15 01:19:51;;;;;;;8.35;5.20;;;;;;;-146.25;100.00;52461.47;2097138;28;20037;-64
2024/03/15 01:20:52;;;;;;;6.28;5.07;;;;;;;-146.25;100.00;52443.22;2097891;28;33312;-64
2024/03/15 01:21:54;;;;;;;7.63;5.25;;;;;;;-146.25;100.00;52514.19;2097770;28;33734;-64
2024/03/15 01:22:56;;;;;;;5.97;4.60;;;;;;;-146.25;100.00;52495.94;2095804;28;20176;-65
2024/03/15 01:23:58;;;;;;;6.32;4.65;;;;;;;-146.25;100.00;52453.34;2078894;28;36295;-64
2024/03/15 01:25:00;;;;;;;7.22;5.07;;;;;;;-146.25;100.00;52495.94;2079948;28;20919;-65
2024/03/15 01:26:04;;;;;;;8.90;5.25;;;;;;;-146.25;100.00;52473.63;2096383;28;34974;-64
2024/03/15 01:27:08;;;;;;;6.80;5.28;;;;;;;-146.25;100.00;52489.84;2096184;28;32716;-64
2024/03/15 01:28:10;;;;;;;7.13;5.07;;;;;;;-146.25;100.00;52475.66;2096546;28;28814;-64
2024/03/15 01:29:12;;;;;;;5.88;4.90;;;;;;;-146.25;100.00;52502.03;2086866;28;33366;-63
2024/03/15 01:30:14;;;;;;;6.35;5.13;;;;;;;-146.25;100.00;52514.19;2087594;28;33160;-64
2024/03/15 01:31:16;;;;;;;6.70;5.63;;;;;;;-146.25;100.00;52463.50;2096222;28;33514;-64
2024/03/15 01:32:17;;;;;;;8.65;5.20;;;;;;;-146.25;100.00;52497.97;2096312;28;36525;-64
2024/03/15 01:33:19;;;;;;;8.88;5.45;;;;;;;-146.25;100.00;52481.75;2086857;28;34528;-65
2024/03/15 01:34:22;;;;;;;8.27;5.32;;;;;;;-146.25;100.00;52475.66;2087718;28;36051;-64
2024/03/15 01:35:32;;;;;;;8.32;5.07;;;;;;;-146.25;100.00;52477.69;2087318;28;26195;-65
2024/03/15 01:36:33;;;;;;;6.55;5.38;;;;;;;-146.25;100.00;52506.06;2089066;28;32899;-64
2024/03/15 01:37:36;;;;;;;6.78;4.80;;;;;;;-146.25;100.00;52471.59;2087100;28;33870;-65
2024/03/15 01:38:38;;;;;;;6.80;4.93;;;;;;;-146.25;100.00;52493.91;2087796;28;36116;-64
2024/03/15 01:39:40;;;;;;;6.13;5.35;;;;;;;-146.25;100.00;52483.78;2087320;28;28002;-65
2024/03/15 01:40:42;;;;;;;6.60;5.32;;;;;;;-146.25;100.00;52477.69;2087602;28;35079;-64
2024/03/15 01:41:44;;;;;;;6.60;5.25;;;;;;;-146.25;100.00;52510.13;2095912;28;36507;-65
2024/03/15 01:42:48;;;;;;;7.28;4.65;;;;;;;-146.25;100.00;52469.56;2096455;28;35890;-64
2024/03/15 01:43:50;;;;;;;5.78;5.00;;;;;;;-146.25;100.00;52516.22;2096329;28;25620;-65
2024/03/15 01:44:55;;;;;;;6.13;5.40;;;;;;;-146.25;100.00;52453.34;2096780;28;20037;-64
2024/03/15 01:45:57;;;;;;;9.90;5.00;;;;;;;-146.25;100.00;52534.47;2096068;28;36955;-64
2024/03/15 01:47:01;;;;;;;7.13;5.40;;;;;;;-146.25;100.00;52495.94;2096920;28;20041;-64
2024/03/15 01:48:07;;;;;;;7.18;5.30;;;;;;;-146.25;100.00;52518.25;2095351;28;33969;-63
2024/03/15 01:49:09;;;;;;;5.93;5.32;;;;;;;-146.25;100.00;52514.19;2096415;28;33905;-64
2024/03/15 01:50:13;;;;;;;7.10;5.10;;;;;;;-146.25;100.00;52485.81;2095401;28;30772;-65
2024/03/15 01:51:14;;;;;;;8.00;5.43;;;;;;;-146.25;100.00;52471.59;2096535;28;35359;-65
2024/03/15 01:52:16;;;;;;;6.65;4.85;;;;;;;-146.25;100.00;52514.19;2087564;28;20936;-65
2024/03/15 01:53:19;;;;;;;5.65;4.65;;;;;;;-146.25;100.00;52471.59;2087644;28;32504;-64
2024/03/15 01:54:22;;;;;;;6.28;5.03;;;;;;;-146.25;100.00;52477.69;2086925;28;33922;-65
2024/03/15 01:55:27;;;;;;;6.97;5.43;;;;;;;-146.25;100.00;52475.66;2080111;28;20045;-65
2024/03/15 01:56:33;;;;;;;7.15;5.50;;;;;;;-146.25;100.00;52483.78;2088971;28;20077;-64
2024/03/15 01:57:37;;;;;;;7.50;5.15;;;;;;;-146.25;100.00;52506.06;2095779;28;34067;-64
2024/03/15 01:58:39;;;;;;;7.53;5.25;;;;;;;-146.25;100.00;52510.13;2087092;28;32958;-64
2024/03/15 01:59:41;;;;;;;7.82;5.45;;;;;;;-146.25;100.00;52453.34;2088135;28;33711;-64
2024/03/15 02:00:43;;;;;;;7.78;5.28;;;;;;;-146.25;100.00;52514.19;2087822;28;37550;-64
2024/03/15 02:01:47;;;;;;;6.97;5.65;;;;;;;-146.25;100.00;52473.63;2087969;28;20808;-65
2024/03/15 02:02:50;;;;;;;8.05;5.22;;;;;;;-146.25;100.00;52487.81;2095333;28;20034;-64
2024/03/15 02:03:56;;;;;;;8.05;5.20;;;;;;;-146.25;100.00;52530.41;2086675;28;31986;-64
2024/03/15 02:04:57;;;;;;;7.53;4.95;;;;;;;-146.25;100.00;52469.56;2087527;28;34487;-63
2024/03/15 02:06:00;;;;;;;10.63;5.82;;;;;;;-146.25;100.00;52485.81;2095582;28;36044;-65
2024/03/15 02:07:02;;;;;;;7.43;5.18;;;;;;;-146.25;100.00;52459.44;2087626;28;36725;-63
2024/03/15 02:08:07;;;;;;;8.05;5.60;;;;;;;-146.25;100.00;52483.78;2088247;28;32262;-63
2024/03/15 02:09:11;;;;;;;7.00;5.47;;;;;;;-146.25;100.00;52506.06;2089855;28;33452;-63
2024/03/15 02:10:19;;;;;;;7.18;5.25;;;;;;;-146.25;100.00;52433.06;2089985;28;20041;-63
2024/03/15 02:11:21;;;;;;;6.97;5.47;;;;;;;-146.25;100.00;52493.91;2089223;28;34721;-63
2024/03/15 02:12:25;;;;;;;7.38;5.57;;;;;;;-146.25;100.00;52477.69;2089079;28;34959;-64
2024/03/15 02:13:27;;;;;;;6.45;4.90;;;;;;;-146.25;100.00;52487.81;2088729;28;32606;-63
2024/03/15 02:14:28;;;;;;;7.53;5.30;;;;;;;-146.25;100.00;52481.75;2089262;28;34202;-64
2024/03/15 02:15:30;;;;;;;7.47;4.97;;;;;;;-146.25;100.00;52504.03;2089070;28;31211;-64
2024/03/15 02:16:34;;;;;;;8.32;5.32;;;;;;;-146.25;100.00;52483.78;2089419;28;34365;-64
2024/03/15 02:17:42;;;;;;;8.45;5.22;;;;;;;-146.25;100.00;52487.81;2089310;28;29383;-64
2024/03/15 02:18:44;;;;;;;9.25;5.95;;;;;;;-146.25;100.00;52497.97;2096161;28;30935;-63
2024/03/15 02:19:49;;;;;;;7.18;5.38;;;;;;;-146.25;100.00;52473.63;2097291;28;33955;-63
2024/03/15 02:20:53;;;;;;;6.85;5.50;;;;;;;-146.25;100.00;52487.81;2097678;28;30063;-63
2024/03/15 02:21:54;;;;;;;6.45;5.15;;;;;;;-146.25;100.00;52451.31;2097817;28;36055;-64
2024/03/15 02:22:58;;;;;;;6.72;5.13;;;;;;;-146.25;100.00;52487.81;2088792;28;34697;-64
2024/03/15 02:24:01;;;;;;;8.77;5.20;;;;;;;-146.25;100.00;52473.63;2089040;28;34288;-65
2024/03/15 02:25:03;;;;;;;5.55;4.82;;;;;;;-146.25;100.00;52508.09;2097382;28;33690;-64
2024/03/15 02:26:05;;;;;;;7.60;5.88;;;;;;;-146.25;100.00;52489.84;2097210;28;38951;-63
2024/03/15 02:27:08;;;;;;;5.80;5.22;;;;;;;-146.25;100.00;52526.34;2088519;28;29307;-64
2024/03/15 02:28:10;;;;;;;6.78;5.68;;;;;;;-146.25;100.00;52483.78;2088985;28;32581;-64
2024/03/15 02:29:18;;;;;;;7.10;5.22;;;;;;;-146.25;100.00;52471.59;2097416;28;37375;-63
2024/03/15 02:30:20;;;;;;;9.35;5.82;;;;;;;-146.25;100.00;52493.91;2098346;28;20044;-63
2024/03/15 02:31:24;;;;;;;7.65;5.70;;;;;;;-146.25;100.00;52457.41;2097248;28;34050;-63
2024/03/15 02:32:27;;;;;;;8.23;5.75;;;;;;;-146.25;100.00;52471.59;2097425;28;34122;-64
2024/03/15 02:33:29;;;;;;;7.93;5.28;;;;;;;-146.25;100.00;52475.66;2096911;28;31737;-63
2024/03/15 02:34:31;;;;;;;7.75;5.55;;;;;;;-146.25;100.00;52473.63;2097667;28;33250;-64
2024/03/15 02:35:33;;;;;;;6.97;6.07;;;;;;;-146.25;100.00;52504.03;2097256;28;29444;-63
2024/03/15 02:36:34;;;;;;;10.57;5.95;;;;;;;-146.25;100.00;52477.69;2097325;28;34928;-63
2024/03/15 02:37:36;;;;;;;7.30;5.75;;;;;;;-146.25;100.00;52504.03;2097400;28;35353;-63
2024/03/15 02:38:38;;;;;;;8.43;5.82;;;;;;;-146.25;100.00;52514.19;2097495;28;32474;-63
2024/03/15 02:39:40;;;;;;;7.75;5.63;;;;;;;-146.25;100.00;52483.78;2097453;28;34587;-63
2024/03/15 02:40:42;;;;;;;9.05;6.13;;;;;;;-146.25;100.00;52461.47;2097366;28;33422;-63
2024/03/15 02:41:44;;;;;;;9.05;6.32;;;;;;;-146.25;100.00;52481.75;2097989;28;20118;-65
2024/03/15 02:42:46;;;;;;;7.57;5.97;;;;;;;-146.25;100.00;52491.88;2088498;28;29355;-63
2024/03/15 02:43:48;;;;;;;7.50;5.38;;;;;;;-146.25;100.00;52475.66;2088544;28;36805;-63
2024/03/15 02:44:50;;;;;;;7.10;5.47;;;;;;;-146.25;100.00;52475.66;2097357;28;33991;-63
2024/03/15 02:45:52;;;;;;;11.40;5.90;;;;;;;-146.25;100.00;52477.69;2097337;28;31916;-63
2024/03/15 02:46:53;;;;;;;8.38;5.97;;;;;;;-146.25;100.00;52465.53;2096868;28;32884;-63
2024/03/15 02:47:58;;;;;;;7.68;5.75;;;;;;;-146.25;100.00;52475.66;2097282;28;32741;-63
2024/03/15 02:49:00;;;;;;;6.85;5.60;;;;;;;-146.25;100.00;52477.69;2096935;28;33723;-64
2024/03/15 02:50:05;;;;;;;15.60;6.22;;;;;;;-146.25;100.00;52481.75;2096866;28;36445;-63
2024/03/15 02:51:07;;;;;;;6.43;5.60;;;;;;;-146.25;100.00;52443.22;2097406;28;33529;-62
2024/03/15 02:52:09;;;;;;;7.05;5.82;;;;;;;-146.25;100.00;52526.34;2079928;28;35852;-64
2024/03/15 02:53:11;;;;;;;8.05;6.22;;;;;;;-146.25;100.00;52526.34;2080906;28;20164;-63
2024/03/15 02:54:13;;;;;;;7.63;5.50;;;;;;;-146.25;100.00;52477.69;2097008;28;36144;-63
2024/03/15 02:55:15;;;;;;;7.63;6.43;;;;;;;-146.25;100.00;52489.84;2097264;28;33746;-63
2024/03/15 02:56:17;;;;;;;6.78;5.95;;;;;;;-146.25;100.00;52473.63;2088996;28;20175;-64
2024/03/15 02:57:20;;;;;;;8.48;6.68;;;;;;;-146.25;100.00;52477.69;2088484;28;35336;-64
2024/03/15 02:58:24;;;;;;;9.05;6.30;;;;;;;-146.25;100.00;52493.91;2097305;28;32831;-64
2024/03/15 02:59:26;;;;;;;9.45;6.60;;;;;;;-146.25;100.00;52497.97;2097136;28;32751;-64
2024/03/15 03:00:31;;;;;;;9.55;6.40;;;;;;;-146.25;100.00;52481.75;2096424;28;36035;-63
2024/03/15 03:01:33;;;;;;;10.77;6.50;;;;;;;-146.25;100.00;52479.72;2097882;28;20048;-63
2024/03/15 03:02:35;;;;;;;8.93;6.45;;;;;;;-146.25;100.00;52469.56;2097934;28;20956;-63
2024/03/15 03:03:37;;;;;;;10.05;6.32;;;;;;;-146.25;100.00;52471.59;2097158;28;36139;-64
2024/03/15 03:04:39;;;;;;;8.07;5.95;;;;;;;-146.25;100.00;52489.84;2097224;28;32245;-64
2024/03/15 03:05:43;;;;;;;9.07;6.20;;;;;;;-146.25;100.00;52467.56;2097338;28;35664;-64
2024/03/15 03:06:50;;;;;;;8.43;6.25;;;;;;;-146.25;100.00;52510.13;2098201;28;20807;-64
2024/03/15 03:07:52;;;;;;;8.35;6.15;;;;;;;-146.25;100.00;52506.06;2097096;28;33984;-63
2024/03/15 03:08:54;;;;;;;8.13;5.88;;;;;;;-146.25;100.00;52453.34;2096946;28;38490;-64
2024/03/15 03:09:55;;;;;;;9.07;6.15;;;;;;;-146.25;100.00;52469.56;2097512;28;26820;-64
2024/03/15 03:10:59;;;;;;;9.23;6.65;;;;;;;-146.25;100.00;52477.69;2097031;28;34507;-63
2024/03/15 03:12:04;;;;;;;8.93;6.57;;;;;;;-146.25;100.00;52439.16;2097338;28;30740;-64
2024/03/15 03:13:06;;;;;;;10.35;6.32;;;;;;;-146.25;100.00;52506.06;2088788;28;20060;-64
2024/03/15 03:14:14;;;;;;;8.15;6.20;;;;;;;-146.25;100.00;52467.56;2089354;28;20211;-64
2024/03/15 03:15:15;;;;;;;8.93;6.00;;;;;;;-146.25;100.00;52514.19;2096959;28;33472;-63
2024/03/15 03:16:21;;;;;;;9.73;6.45;;;;;;;-146.25;100.00;52489.84;2097106;28;29881;-64
2024/03/15 03:17:25;;;;;;;9.68;6.93;;;;;;;-146.25;100.00;52487.81;2096163;28;36211;-62
2024/03/15 03:18:27;;;;;;;9.48;6.18;;;;;;;-146.25;100.00;52479.72;2087865;28;28492;-63
2024/03/15 03:19:29;;;;;;;8.88;6.63;;;;;;;-146.25;100.00;52510.13;2087323;28;37948;-63
2024/03/15 03:20:32;;;;;;;10.85;6.90;;;;;;;-146.25;100.00;52506.06;2097805;28;21888;-64
2024/03/15 03:21:34;;;;;;;10.52;6.75;;;;;;;-146.25;100.00;52483.78;2088276;28;20049;-63
2024/03/15 03:22:36;;;;;;;9.50;6.43;;;;;;;-146.25;100.00;52483.78;2088368;28;35748;-63
2024/03/15 03:23:39;;;;;;;9.23;7.05;;;;;;;-146.25;100.00;52481.75;2097410;28;20132;-64
2024/03/15 03:24:41;;;;;;;8.00;6.30;;;;;;;-146.25;100.00;52500.00;2097356;28;35544;-63
2024/03/15 03:25:45;;;;;;;9.18;6.63;;;;;;;-146.25;100.00;52493.91;2097520;28;20126;-63
2024/03/15 03:26:48;;;;;;;9.15;6.65;;;;;;;-146.25;100.00;52457.41;2097707;28;20041;-63
2024/03/15 03:27:50;;;;;;;9.05;6.57;;;;;;;-146.25;100.00;52477.69;2097014;28;34778;-63
2024/03/15 03:28:52;;;;;;;10.80;6.90;;;;;;;-146.25;100.00;52467.56;2098295;28;30935;-64
2024/03/15 03:29:54;;;;;;;9.10;6.93;;;;;;;-146.25;100.00;52481.75;2096749;28;35456;-63
2024/03/15 03:30:55;;;;;;;8.20;6.50;;;;;;;-146.25;100.00;52427.00;2097334;28;31523;-63
2024/03/15 03:31:57;;;;;;;9.13;6.70;;;;;;;-146.25;100.00;52461.47;2096842;28;34808;-64
2024/03/15 03:32:59;;;;;;;9.63;6.10;;;;;;;-146.25;100.00;52497.97;2096889;28;33462;-65
2024/03/15 03:34:01;;;;;;;10.07;6.47;;;;;;;-146.25;100.00;52495.94;2097389;28;20967;-66
2024/03/15 03:35:04;;;;;;;8.65;6.85;;;;;;;-146.25;100.00;52493.91;2096699;28;35567;-63
2024/03/15 03:36:06;;;;;;;9.27;7.20;;;;;;;-146.25;100.00;52497.97;2096968;28;37049;-65
2024/03/15 03:37:11;;;;;;;10.15;7.13;;;;;;;-146.25;100.00;52514.19;2096905;28;34955;-63
2024/03/15 03:38:12;;;;;;;9.20;6.82;;;;;;;-146.25;100.00;52483.78;2096332;28;36533;-64
2024/03/15 03:39:14;;;;;;;10.82;7.28;;;;;;;-146.25;100.00;52508.09;2096939;28;33974;-65
2024/03/15 03:40:16;;;;;;;8.63;6.95;;;;;;;-146.25;100.00;52512.16;2096884;28;35584;-65
2024/03/15 03:41:19;;;;;;;9.90;6.90;;;;;;;-146.25;100.00;52497.97;2096926;28;35077;-63
2024/03/15 03:42:23;;;;;;;11.13;7.40;;;;;;;-146.25;100.00;52500.00;2096895;28;33470;-63
2024/03/15 03:43:24;;;;;;;9.38;6.60;;;;;;;-146.25;100.00;52500.00;2096591;28;37822;-64
2024/03/15 03:44:26;;;;;;;10.43;7.00;;;;;;;-146.25;100.00;52512.16;2096789;28;32532;-62
2024/03/15 03:45:28;;;;;;;8.32;6.65;;;;;;;-146.25;100.00;52489.84;2097140;28;28753;-62
2024/03/15 03:46:31;;;;;;;10.10;7.32;;;;;;;-146.25;100.00;52510.13;2096812;28;36944;-63
2024/03/15 03:47:32;;;;;;;10.05;7.15;;;;;;;-146.25;100.00;52528.38;2096862;28;35673;-63
2024/03/15 03:48:34;;;;;;;9.30;7.00;;;;;;;-146.25;100.00;52502.03;2096388;28;35515;-62
2024/03/15 03:49:36;;;;;;;8.85;6.43;;;;;;;-146.25;100.00;52463.50;2097038;28;36275;-64
2024/03/15 03:50:38;;;;;;;8.55;6.93;;;;;;;-146.25;100.00;52461.47;2097297;28;31034;-63
2024/03/15 03:51:39;;;;;;;10.43;7.38;;;;;;;-146.25;100.00;52487.81;2096728;28;33717;-64
2024/03/15 03:52:41;;;;;;;9.45;6.63;;;;;;;-146.25;100.00;52455.38;2096244;28;36212;-63
2024/03/15 03:53:44;;;;;;;10.68;7.13;;;;;;;-146.25;100.00;52512.16;2095913;28;33539;-62
2024/03/15 03:54:46;;;;;;;9.15;7.10;;;;;;;-146.25;100.00;52485.81;2096713;28;35591;-66
2024/03/15 03:55:47;;;;;;;9.25;7.20;;;;;;;-146.25;100.00;52493.91;2096932;28;33162;-63
2024/03/15 03:56:49;;;;;;;9.07;7.25;;;;;;;-146.25;100.00;52493.91;2096714;28;33581;-62
2024/03/15 03:57:51;;;;;;;10.30;6.63;;;;;;;-146.25;100.00;52477.69;2096988;28;37151;-63
2024/03/15 03:58:54;;;;;;;10.20;7.15;;;;;;;-146.25;100.00;52497.97;2095995;28;34687;-63
2024/03/15 03:59:56;;;;;;;10.40;7.25;;;;;;;-146.25;100.00;52437.13;2096209;28;36915;-63
2024/03/15 04:00:58;;;;;;;7.55;6.53;;;;;;;-146.25;100.00;52469.56;2096863;28;31313;-62
2024/03/15 04:02:03;;;;;;;9.40;6.85;;;;;;;-146.25;100.00;52469.56;2096894;28;26237;-62
2024/03/15 04:03:05;;;;;;;9.95;6.72;;;;;;;-146.25;100.00;52500.00;2096470;28;34843;-63
2024/03/15 04:04:07;;;;;;;9.65;6.97;;;;;;;-146.25;100.00;52485.81;2097025;28;20049;-62
2024/03/15 04:05:09;;;;;;;8.70;6.82;;;;;;;-146.25;100.00;52493.91;2096965;28;33713;-64
2024/03/15 04:06:11;;;;;;;9.40;7.05;;;;;;;-146.25;100.00;52497.97;2097142;28;32873;-63
2024/03/15 04:07:13;;;;;;;10.65;7.57;;;;;;;-146.25;100.00;52473.63;2096632;28;34376;-66
2024/03/15 04:08:17;;;;;;;9.55;7.03;;;;;;;-146.25;100.00;52487.81;2096508;28;35408;-65
2024/03/15 04:09:19;;;;;;;7.63;6.82;;;;;;;-146.25;100.00;52493.91;2096723;28;30532;-64
2024/03/15 04:10:21;;;;;;;11.43;7.03;;;;;;;-146.25;100.00;52469.56;2096694;28;36925;-65
2024/03/15 04:11:23;;;;;;;9.55;6.80;;;;;;;-146.25;100.00;52465.53;2096648;28;34267;-65
2024/03/15 04:12:28;;;;;;;9.13;7.13;;;;;;;-146.25;100.00;52483.78;2096701;28;34637;-64
2024/03/15 04:13:30;;;;;;;12.55;7.00;;;;;;;-146.25;100.00;52473.63;2096348;28;36386;-65
2024/03/15 04:14:34;;;;;;;8.35;7.05;;;;;;;-146.25;100.00;52481.75;2096828;28;34674;-65
2024/03/15 04:15:46;;;;;;;8.52;6.53;;;;;;;-146.25;100.00;52481.75;2096476;28;31497;-64
2024/03/15 04:16:48;;;;;;;9.82;7.45;;;;;;;-146.25;100.00;52471.59;2096583;28;36064;-65
2024/03/15 04:17:50;;;;;;;10.82;7.85;;;;;;;-146.25;100.00;52469.56;2096301;28;33765;-64
2024/03/15 04:18:54;;;;;;;10.70;7.55;;;;;;;-146.25;100.00;52512.16;2087678;28;32804;-64
2024/03/15 04:19:57;;;;;;;12.50;7.82;;;;;;;-146.25;100.00;52506.06;2088018;28;35593;-65
2024/03/15 04:20:59;;;;;;;8.60;6.75;;;;;;;-146.25;100.00;52512.16;2096960;28;33611;-65
2024/03/15 04:22:01;;;;;;;12.07;7.15;;;;;;;-146.25;100.00;52487.81;2096634;28;32927;-64
2024/03/15 04:23:03;;;;;;;9.88;7.53;;;;;;;-146.25;100.00;52475.66;2088232;28;20045;-64
2024/03/15 04:24:07;;;;;;;9.95;7.30;;;;;;;-146.25;100.00;52485.81;2087761;28;32966;-64
2024/03/15 04:25:10;;;;;;;9.43;7.30;;;;;;;-146.25;100.00;52491.88;2087566;28;33606;-63
2024/03/15 04:26:15;;;;;;;12.20;8.05;;;;;;;-146.25;100.00;52445.25;2087809;28;32294;-64
2024/03/15 04:27:17;;;;;;;10.20;7.85;;;;;;;-146.25;100.00;52465.53;2096895;28;30652;-64
2024/03/15 04:28:19;;;;;;;8.98;7.00;;;;;;;-146.25;100.00;52467.56;2087845;28;20183;-63
2024/03/15 04:29:22;;;;;;;11.73;7.53;;;;;;;-146.25;100.00;52461.47;2087790;28;36466;-64
2024/03/15 04:30:24;;;;;;;10.52;7.80;;;;;;;-146.25;100.00;52495.94;2096474;28;32526;-64
2024/03/15 04:31:31;;;;;;;10.75;7.55;;;;;;;-146.25;100.00;52469.56;2096267;28;37022;-64
2024/03/15 04:32:34;;;;;;;12.02;7.95;;;;;;;-146.25;100.00;52455.38;2096411;28;33060;-64
2024/03/15 04:33:37;;;;;;;9.75;7.82;;;;;;;-146.25;100.00;52461.47;2096488;28;34309;-64
2024/03/15 04:34:40;;;;;;;9.32;7.45;;;;;;;-146.25;100.00;52504.03;2096381;28;37168;-64
2024/03/15 04:35:42;;;;;;;9.98;7.60;;;;;;;-146.25;100.00;52467.56;2088663;28;20084;-64
2024/03/15 04:36:47;;;;;;;12.48;7.95;;;;;;;-146.25;100.00;52526.34;2087741;28;32853;-63
2024/03/15 04:37:54;;;;;;;9.88;7.65;;;;;;;-146.25;100.00;52502.03;2097105;28;31046;-64
2024/03/15 04:38:58;;;;;;;8.50;7.45;;;;;;;-146.25;100.00;52424.97;2096804;28;32258;-64
2024/03/15 04:40:02;;;;;;;12.82;8.25;;;;;;;-146.25;100.00;52522.28;2096633;28;35215;-64
2024/03/15 04:41:10;;;;;;;10.18;7.55;;;;;;;-146.25;100.00;52497.97;2096981;28;20925;-64
2024/03/15 04:42:14;;;;;;;10.98;7.72;;;;;;;-146.25;100.00;52491.88;2096562;28;37622;-64
2024/03/15 04:43:17;;;;;;;11.63;8.40;;;;;;;-146.25;100.00;52508.09;2087504;28;34447;-64
2024/03/15 04:44:19;;;;;;;12.90;8.00;;;;;;;-146.25;100.00;52510.13;2089204;28;20919;-63